createdAt,value
2022-10-20T00:00:36.264Z,6.58
2022-10-20T00:03:02.544Z,6.60
2022-10-20T00:05:28.796Z,6.57
2022-10-20T00:07:54.987Z,6.54
2022-10-20T00:10:21.166Z,6.57
2022-10-20T00:12:47.351Z,6.60
2022-10-20T00:15:13.556Z,6.57
2022-10-20T00:17:39.745Z,6.59
2022-10-20T00:20:05.964Z,6.65
2022-10-20T00:22:32.358Z,6.65
2022-10-20T00:24:58.646Z,6.69
2022-10-20T00:27:24.840Z,6.60
2022-10-20T00:29:51.029Z,6.66
2022-10-20T00:32:17.545Z,6.71
2022-10-20T00:34:43.718Z,6.73
2022-10-20T00:37:09.953Z,6.48
2022-10-20T00:39:36.134Z,6.70
2022-10-20T00:42:02.321Z,6.77
2022-10-20T00:44:28.509Z,6.83
2022-10-20T00:46:54.823Z,6.73
2022-10-20T00:49:21.009Z,6.74
2022-10-20T00:51:47.214Z,6.73
2022-10-20T00:54:13.408Z,6.72
2022-10-20T00:56:39.981Z,6.76
2022-10-20T00:59:06.182Z,6.78
2022-10-20T01:01:32.480Z,6.83
2022-10-20T01:03:58.703Z,6.86
2022-10-20T01:06:24.906Z,6.90
2022-10-20T01:08:51.222Z,6.93
2022-10-20T01:11:18.154Z,6.92
2022-10-20T01:13:44.344Z,6.87
2022-10-20T01:16:10.546Z,6.88
2022-10-20T01:18:36.722Z,6.89
2022-10-20T01:21:05.026Z,6.95
2022-10-20T01:23:31.210Z,6.96
2022-10-20T01:25:57.414Z,7.00
2022-10-20T01:28:23.751Z,6.99
2022-10-20T01:30:49.960Z,6.97
2022-10-20T01:33:16.180Z,7.01
2022-10-20T01:35:42.507Z,6.75
2022-10-20T01:38:08.692Z,6.76
2022-10-20T01:40:34.999Z,6.75
2022-10-20T01:43:01.186Z,6.71
2022-10-20T01:45:27.382Z,6.71
2022-10-20T01:47:53.563Z,6.74
2022-10-20T01:50:19.988Z,6.74
2022-10-20T01:52:46.187Z,6.70
2022-10-20T01:55:12.455Z,6.68
2022-10-20T01:57:38.667Z,6.63
2022-10-20T02:00:04.868Z,6.65
2022-10-20T02:02:31.046Z,6.63
2022-10-20T02:04:57.233Z,6.57
2022-10-20T02:07:23.417Z,6.52
2022-10-20T02:09:49.650Z,6.46
2022-10-20T02:12:15.859Z,6.41
2022-10-20T02:14:42.050Z,6.22
2022-10-20T02:17:08.239Z,6.34
2022-10-20T02:19:34.430Z,6.33
2022-10-20T02:22:00.617Z,6.24
2022-10-20T02:24:27.056Z,6.26
2022-10-20T02:26:53.235Z,6.29
2022-10-20T02:29:22.612Z,6.28
2022-10-20T02:31:48.797Z,6.32
2022-10-20T02:34:15.020Z,6.31
2022-10-20T02:36:41.206Z,6.27
2022-10-20T02:39:07.442Z,6.22
2022-10-20T02:41:33.666Z,6.22
2022-10-20T02:43:59.878Z,6.13
2022-10-20T02:46:26.083Z,6.08
2022-10-20T02:48:52.268Z,6.17
2022-10-20T02:51:18.670Z,5.92
2022-10-20T02:53:44.858Z,6.05
2022-10-20T02:56:11.057Z,5.94
2022-10-20T02:58:37.250Z,5.90
2022-10-20T03:01:03.434Z,5.91
2022-10-20T03:03:29.638Z,5.86
2022-10-20T03:05:55.835Z,5.90
2022-10-20T03:08:22.356Z,5.95
2022-10-20T03:10:48.559Z,5.97
2022-10-20T03:13:15.559Z,6.04
2022-10-20T03:15:41.769Z,6.07
2022-10-20T03:18:07.964Z,6.12
2022-10-20T03:20:34.200Z,6.18
2022-10-20T03:23:00.387Z,6.21
2022-10-20T03:25:26.594Z,6.25
2022-10-20T03:27:52.770Z,6.22
2022-10-20T03:30:18.964Z,6.25
2022-10-20T03:32:45.155Z,6.11
2022-10-20T03:35:11.347Z,6.20
2022-10-20T03:37:37.540Z,6.00
2022-10-20T03:40:03.740Z,6.10
2022-10-20T03:42:29.927Z,6.07
2022-10-20T03:44:56.102Z,6.04
2022-10-20T03:47:22.301Z,6.05
2022-10-20T03:49:48.498Z,5.89
2022-10-20T03:52:14.681Z,5.89
2022-10-20T03:54:40.966Z,6.01
2022-10-20T03:57:08.034Z,6.00
2022-10-20T03:59:34.263Z,5.87
2022-10-20T04:02:00.550Z,5.75
2022-10-20T04:04:26.805Z,5.60
2022-10-20T04:06:52.983Z,5.74
2022-10-20T04:09:19.198Z,5.79
2022-10-20T04:11:45.403Z,5.63
2022-10-20T04:14:11.635Z,5.39
2022-10-20T04:16:37.872Z,5.26
2022-10-20T04:19:04.671Z,5.35
2022-10-20T04:21:30.871Z,5.18
2022-10-20T04:23:57.074Z,5.31
2022-10-20T04:26:23.267Z,5.24
2022-10-20T04:28:49.471Z,5.12
2022-10-20T04:31:15.650Z,5.26
2022-10-20T04:33:41.855Z,5.14
2022-10-20T04:36:08.063Z,5.25
2022-10-20T04:38:34.385Z,4.97
2022-10-20T04:41:03.364Z,5.25
2022-10-20T04:43:30.502Z,5.36
2022-10-20T04:45:59.909Z,5.38
2022-10-20T04:48:28.816Z,5.34
2022-10-20T04:50:54.987Z,5.15
2022-10-20T04:53:21.158Z,5.39
2022-10-20T04:55:47.345Z,5.22
2022-10-20T04:58:13.529Z,5.14
2022-10-20T05:00:39.710Z,5.36
2022-10-20T05:03:05.915Z,5.38
2022-10-20T05:05:32.115Z,5.54
2022-10-20T05:07:58.301Z,5.67
2022-10-20T05:10:24.507Z,5.81
2022-10-20T05:12:50.710Z,5.95
2022-10-20T05:15:16.932Z,6.03
2022-10-20T05:17:43.114Z,6.11
2022-10-20T05:20:09.302Z,6.22
2022-10-20T05:22:35.793Z,6.28
2022-10-20T05:25:24.554Z,6.33
2022-10-20T05:27:48.433Z,6.44
2022-10-20T05:30:14.637Z,6.50
2022-10-20T05:32:40.818Z,6.52
2022-10-20T05:35:07.008Z,6.56
2022-10-20T05:37:33.226Z,6.61
2022-10-20T05:40:02.692Z,6.63
2022-10-20T05:42:28.883Z,6.67
2022-10-20T05:44:56.124Z,6.73
2022-10-20T05:47:22.321Z,6.79
2022-10-20T05:49:48.513Z,6.88
2022-10-20T05:52:14.820Z,6.96
2022-10-20T05:54:41.301Z,6.97
2022-10-20T05:57:07.493Z,7.07
2022-10-20T05:59:33.684Z,7.16
2022-10-20T06:01:59.899Z,7.21
2022-10-20T06:04:28.041Z,7.23
2022-10-20T06:06:54.352Z,7.28
2022-10-20T06:09:20.533Z,7.30
2022-10-20T06:11:46.748Z,7.39
2022-10-20T06:14:12.959Z,7.45
2022-10-20T06:16:39.232Z,7.50
2022-10-20T06:19:06.614Z,7.52
2022-10-20T06:21:32.941Z,7.54
2022-10-20T06:23:59.523Z,7.62
2022-10-20T06:26:25.775Z,7.69
2022-10-20T06:28:51.964Z,7.74
2022-10-20T06:31:18.171Z,7.82
2022-10-20T06:33:44.350Z,7.89
2022-10-20T06:36:10.667Z,7.90
2022-10-20T06:38:36.914Z,8.00
2022-10-20T06:41:03.119Z,8.05
2022-10-20T06:43:29.311Z,8.09
2022-10-20T06:45:55.647Z,8.25
2022-10-20T06:48:21.898Z,8.27
2022-10-20T06:50:48.087Z,8.32
2022-10-20T06:53:14.335Z,8.43
2022-10-20T06:55:40.728Z,8.47
2022-10-20T06:58:07.019Z,8.60
2022-10-20T07:00:33.398Z,8.63
2022-10-20T07:02:59.676Z,8.73
2022-10-20T07:05:25.943Z,8.95
2022-10-20T07:07:52.208Z,8.96
2022-10-20T07:10:18.472Z,9.04
2022-10-20T07:12:44.755Z,9.03
2022-10-20T07:15:11.014Z,9.27
2022-10-20T07:17:37.265Z,9.22
2022-10-20T07:20:03.521Z,9.36
2022-10-20T07:22:29.832Z,9.32
2022-10-20T07:24:56.089Z,9.35
2022-10-20T07:27:22.335Z,9.42
2022-10-20T07:29:48.583Z,9.54
2022-10-20T07:32:14.906Z,9.63
2022-10-20T07:34:41.171Z,9.64
2022-10-20T07:37:07.414Z,9.74
2022-10-20T07:39:33.677Z,9.75
2022-10-20T07:41:59.931Z,9.93
2022-10-20T07:44:26.208Z,9.92
2022-10-20T07:46:52.506Z,10.13
2022-10-20T07:52:05.026Z,10.09
2022-10-20T07:54:31.790Z,10.14
2022-10-20T07:56:58.050Z,10.27
2022-10-20T07:59:24.414Z,10.35
2022-10-20T08:01:52.480Z,10.44
2022-10-20T08:04:19.956Z,10.49
2022-10-20T08:06:47.167Z,10.65
2022-10-20T08:09:13.425Z,10.77
2022-10-20T08:11:39.679Z,10.77
2022-10-20T08:14:06.039Z,10.84
2022-10-20T08:16:50.130Z,10.87
2022-10-20T08:19:17.960Z,11.12
2022-10-20T08:21:44.221Z,11.17
2022-10-20T08:24:10.721Z,11.12
2022-10-20T08:26:36.981Z,11.26
2022-10-20T08:29:03.302Z,11.22
2022-10-20T08:31:29.545Z,11.33
2022-10-20T08:33:56.802Z,11.28
2022-10-20T08:36:23.069Z,11.37
2022-10-20T08:38:49.364Z,11.35
2022-10-20T08:41:15.621Z,11.56
2022-10-20T08:43:42.014Z,11.53
2022-10-20T08:46:08.327Z,11.42
2022-10-20T08:48:34.587Z,11.53
2022-10-20T08:51:00.843Z,11.56
2022-10-20T08:53:27.140Z,11.63
2022-10-20T08:55:53.396Z,11.71
2022-10-20T08:58:19.647Z,11.79
2022-10-20T09:00:45.989Z,11.76
2022-10-20T09:03:12.301Z,11.67
2022-10-20T09:05:38.546Z,11.80
2022-10-20T09:08:04.800Z,11.77
2022-10-20T09:10:31.131Z,11.94
2022-10-20T09:12:57.434Z,12.08
2022-10-20T09:15:23.750Z,11.99
2022-10-20T09:17:49.997Z,12.01
2022-10-20T09:20:16.255Z,12.16
2022-10-20T09:22:42.517Z,12.28
2022-10-20T09:25:08.765Z,12.46
2022-10-20T09:27:35.240Z,12.57
2022-10-20T09:30:01.821Z,12.51
2022-10-20T09:32:45.601Z,12.44
2022-10-20T09:35:13.097Z,12.44
2022-10-20T09:37:39.367Z,12.35
2022-10-20T09:40:05.618Z,12.30
2022-10-20T09:42:31.883Z,12.25
2022-10-20T09:44:58.132Z,12.33
2022-10-20T09:47:24.436Z,12.29
2022-10-20T09:49:50.689Z,12.38
2022-10-20T09:52:17.024Z,12.45
2022-10-20T09:54:43.273Z,12.48
2022-10-20T09:57:09.556Z,12.62
2022-10-20T09:59:35.843Z,12.78
2022-10-20T10:02:02.087Z,12.90
2022-10-20T10:04:28.343Z,13.00
2022-10-20T10:06:54.582Z,13.10
2022-10-20T10:09:20.878Z,13.22
2022-10-20T10:11:47.149Z,13.05
2022-10-20T10:14:13.397Z,13.00
2022-10-20T10:16:40.538Z,13.11
2022-10-20T10:19:06.836Z,13.26
2022-10-20T10:21:33.149Z,13.27
2022-10-20T10:23:59.422Z,13.41
2022-10-20T10:26:25.666Z,13.50
2022-10-20T10:28:51.944Z,13.60
2022-10-20T10:31:18.194Z,13.81
2022-10-20T10:33:44.483Z,13.57
2022-10-20T10:36:10.736Z,13.58
2022-10-20T10:38:37.009Z,13.70
2022-10-20T10:41:03.272Z,13.70
2022-10-20T10:43:29.850Z,13.94
2022-10-20T10:45:56.272Z,13.87
2022-10-20T10:48:22.519Z,13.76
2022-10-20T10:50:48.774Z,13.77
2022-10-20T10:53:15.031Z,13.68
2022-10-20T10:55:48.869Z,13.88
2022-10-20T10:58:15.729Z,13.66
2022-10-20T11:00:42.129Z,13.79
2022-10-20T11:03:08.415Z,13.75
2022-10-20T11:05:34.729Z,13.78
2022-10-20T11:08:01.214Z,13.82
2022-10-20T11:10:27.597Z,13.89
2022-10-20T11:12:53.864Z,13.89
2022-10-20T11:15:20.123Z,13.95
2022-10-20T11:17:46.376Z,13.78
2022-10-20T11:20:12.771Z,13.81
2022-10-20T11:22:39.083Z,13.76
2022-10-20T11:25:05.342Z,13.81
2022-10-20T11:27:31.632Z,13.93
2022-10-20T11:30:04.352Z,14.09
2022-10-20T11:32:30.693Z,14.10
2022-10-20T11:34:57.682Z,14.13
2022-10-20T11:37:23.943Z,14.13
2022-10-20T11:39:50.219Z,14.12
2022-10-20T11:42:16.481Z,14.03
2022-10-20T11:44:42.760Z,14.12
2022-10-20T11:47:09.019Z,14.10
2022-10-20T11:49:35.396Z,14.14
2022-10-20T11:52:01.677Z,14.17
2022-10-20T11:54:27.940Z,14.23
2022-10-20T11:56:54.203Z,14.38
2022-10-20T11:59:20.597Z,14.48
2022-10-20T12:01:46.902Z,14.40
2022-10-20T12:04:13.195Z,14.51
2022-10-20T12:06:39.587Z,14.66
2022-10-20T12:09:05.890Z,14.40
2022-10-20T12:11:32.156Z,14.40
2022-10-20T12:13:58.688Z,14.52
2022-10-20T12:16:24.941Z,14.42
2022-10-20T12:18:51.239Z,14.44
2022-10-20T12:21:17.521Z,14.57
2022-10-20T12:23:44.064Z,14.45
2022-10-20T12:26:10.329Z,14.46
2022-10-20T12:28:36.601Z,14.59
2022-10-20T12:31:02.870Z,14.35
2022-10-20T12:33:29.134Z,14.40
2022-10-20T12:35:55.392Z,14.43
2022-10-20T12:41:12.183Z,14.28
2022-10-20T12:43:38.461Z,14.34
2022-10-20T12:46:05.964Z,14.23
2022-10-20T12:48:32.316Z,14.28
2022-10-20T12:50:58.571Z,14.31
2022-10-20T12:53:26.584Z,14.36
2022-10-20T12:55:52.759Z,14.30
2022-10-20T12:58:30.810Z,14.34
2022-10-20T13:01:00.333Z,14.28
2022-10-20T13:03:26.625Z,14.26
2022-10-20T13:05:52.925Z,14.32
2022-10-20T13:08:19.188Z,14.37
2022-10-20T13:10:45.449Z,14.38
2022-10-20T13:13:11.701Z,14.39
2022-10-20T13:15:38.744Z,14.27
2022-10-20T13:18:05.228Z,14.40
2022-10-20T13:20:31.474Z,14.41
2022-10-20T13:22:57.723Z,14.34
2022-10-20T13:25:24.005Z,14.34
2022-10-20T13:27:50.361Z,14.43
2022-10-20T13:30:16.636Z,14.39
2022-10-20T13:32:53.902Z,14.27
2022-10-20T13:35:29.203Z,14.23
2022-10-20T13:37:55.945Z,14.15
2022-10-20T13:40:23.919Z,14.12
2022-10-20T13:42:50.574Z,14.27
2022-10-20T13:45:16.833Z,14.23
2022-10-20T13:47:43.075Z,14.06
2022-10-20T13:50:09.365Z,14.04
2022-10-20T13:52:35.967Z,13.98
2022-10-20T13:55:02.448Z,14.01
2022-10-20T13:57:29.001Z,14.04
2022-10-20T13:59:57.387Z,14.19
2022-10-20T14:02:23.685Z,14.17
2022-10-20T14:04:49.943Z,14.07
2022-10-20T14:07:17.477Z,14.06
2022-10-20T14:09:46.802Z,14.09
2022-10-20T14:12:14.699Z,14.15
2022-10-20T14:14:40.954Z,14.02
2022-10-20T14:17:07.247Z,14.06
2022-10-20T14:19:33.625Z,14.06
2022-10-20T14:21:59.930Z,14.03
2022-10-20T14:24:26.254Z,13.94
2022-10-20T14:26:52.571Z,13.99
2022-10-20T14:29:18.900Z,14.03
2022-10-20T14:31:45.154Z,13.90
2022-10-20T14:34:11.407Z,13.87
2022-10-20T14:36:40.040Z,13.79
2022-10-20T14:39:09.648Z,13.89
2022-10-20T14:41:35.914Z,13.86
2022-10-20T14:44:06.430Z,13.69
2022-10-20T14:46:34.193Z,13.74
2022-10-20T14:49:00.438Z,13.66
2022-10-20T14:51:26.682Z,13.61
2022-10-20T14:53:52.935Z,13.63
2022-10-20T14:56:22.157Z,13.62
2022-10-20T14:58:49.204Z,13.48
2022-10-20T15:01:15.494Z,13.56
2022-10-20T15:03:41.883Z,13.44
2022-10-20T15:06:08.319Z,13.38
2022-10-20T15:08:34.587Z,13.40
2022-10-20T15:11:03.975Z,13.24
2022-10-20T15:13:30.223Z,13.30
2022-10-20T15:15:56.519Z,13.23
2022-10-20T15:18:23.939Z,13.16
2022-10-20T15:20:50.220Z,13.16
2022-10-20T15:23:16.459Z,13.01
2022-10-20T15:25:43.706Z,12.98
2022-10-20T15:28:09.965Z,12.94
2022-10-20T15:30:36.258Z,12.91
2022-10-20T15:33:02.512Z,12.87
2022-10-20T15:35:30.890Z,12.82
2022-10-20T15:37:57.156Z,12.76
2022-10-20T15:40:23.424Z,12.61
2022-10-20T15:42:49.668Z,12.67
2022-10-20T15:45:15.917Z,12.52
2022-10-20T15:47:42.210Z,12.54
2022-10-20T15:50:08.455Z,12.51
2022-10-20T15:52:37.033Z,12.53
2022-10-20T15:55:03.564Z,12.50
2022-10-20T15:57:30.564Z,12.59
2022-10-20T15:59:56.825Z,12.61
2022-10-20T16:02:23.145Z,12.63
2022-10-20T16:04:49.409Z,12.69
2022-10-20T16:07:15.685Z,12.69
2022-10-20T16:09:41.948Z,12.57
2022-10-20T16:12:08.196Z,12.58
2022-10-20T16:14:34.622Z,12.63
2022-10-20T16:17:01.066Z,12.56
2022-10-20T16:19:27.326Z,12.59
2022-10-20T16:21:53.591Z,12.56
2022-10-20T16:24:19.851Z,12.50
2022-10-20T16:26:46.105Z,12.49
2022-10-20T16:29:12.368Z,12.46
2022-10-20T16:31:38.653Z,12.38
2022-10-20T16:34:04.911Z,12.35
2022-10-20T16:36:34.348Z,12.35
2022-10-20T16:39:00.854Z,12.23
2022-10-20T16:41:27.156Z,12.28
2022-10-20T16:43:55.420Z,12.18
2022-10-20T16:46:25.091Z,12.15
2022-10-20T16:48:51.360Z,12.11
2022-10-20T16:51:17.659Z,12.17
2022-10-20T16:53:43.953Z,12.09
2022-10-20T16:56:10.641Z,12.17
2022-10-20T16:58:38.347Z,12.00
2022-10-20T17:01:06.043Z,11.99
2022-10-20T17:03:32.426Z,12.00
2022-10-20T17:05:58.729Z,11.96
2022-10-20T17:08:25.851Z,11.97
2022-10-20T17:10:53.369Z,11.86
2022-10-20T17:13:19.618Z,11.89
2022-10-20T17:15:45.882Z,11.87
2022-10-20T17:18:12.180Z,11.86
2022-10-20T17:20:38.430Z,11.88
2022-10-20T17:23:04.873Z,11.80
2022-10-20T17:25:31.123Z,11.83
2022-10-20T17:27:58.298Z,11.83
2022-10-20T17:30:26.447Z,11.80
2022-10-20T17:32:52.623Z,11.82
2022-10-20T17:35:18.885Z,11.91
2022-10-20T17:37:45.145Z,11.83
2022-10-20T17:40:11.487Z,11.84
2022-10-20T17:42:38.113Z,11.76
2022-10-20T17:45:04.588Z,11.75
2022-10-20T17:47:30.892Z,11.81
2022-10-20T17:49:57.177Z,11.78
2022-10-20T17:52:23.459Z,11.79
2022-10-20T17:54:49.736Z,11.79
2022-10-20T17:57:15.980Z,11.79
2022-10-20T17:59:52.493Z,11.71
2022-10-20T18:02:23.491Z,11.76
2022-10-20T18:04:49.921Z,11.73
2022-10-20T18:07:16.180Z,11.66
2022-10-20T18:09:43.331Z,11.61
2022-10-20T18:12:09.514Z,11.66
2022-10-20T18:14:35.778Z,11.69
2022-10-20T18:17:02.034Z,11.64
2022-10-20T18:19:28.394Z,11.61
2022-10-20T18:21:54.689Z,11.58
2022-10-20T18:24:20.942Z,11.61
2022-10-20T18:26:47.403Z,11.58
2022-10-20T18:29:13.664Z,11.60
2022-10-20T18:31:39.914Z,11.57
2022-10-20T18:34:07.146Z,11.60
2022-10-20T18:36:33.632Z,11.60
2022-10-20T18:41:50.218Z,11.59
2022-10-20T18:44:16.630Z,11.63
2022-10-20T18:46:42.996Z,11.63
2022-10-20T18:49:09.238Z,11.63
2022-10-20T18:51:35.676Z,11.60
2022-10-20T18:54:01.923Z,11.62
2022-10-20T18:56:28.170Z,11.58
2022-10-20T18:58:54.410Z,11.59
2022-10-20T19:01:20.737Z,11.60
2022-10-20T19:03:47.097Z,11.65
2022-10-20T19:06:13.403Z,11.63
2022-10-20T19:08:39.761Z,11.63
2022-10-20T19:11:06.047Z,11.65
2022-10-20T19:13:32.504Z,11.65
2022-10-20T19:15:58.774Z,11.63
2022-10-20T19:18:25.030Z,11.61
2022-10-20T19:20:53.327Z,11.64
2022-10-20T19:23:19.580Z,11.58
2022-10-20T19:25:47.267Z,11.55
2022-10-20T19:28:13.563Z,11.59
2022-10-20T19:30:39.831Z,11.58
2022-10-20T19:33:06.094Z,11.59
2022-10-20T19:35:32.367Z,11.56
2022-10-20T19:37:58.620Z,11.56
2022-10-20T19:40:27.645Z,11.57
2022-10-20T19:42:54.758Z,11.55
2022-10-20T19:45:21.002Z,11.55
2022-10-20T19:47:47.264Z,11.60
2022-10-20T19:50:13.518Z,11.57
2022-10-20T19:52:40.016Z,11.60
2022-10-20T19:55:06.431Z,11.62
2022-10-20T19:57:32.860Z,11.60
2022-10-20T19:59:59.356Z,11.61
2022-10-20T20:02:25.611Z,11.52
2022-10-20T20:04:51.889Z,11.53
2022-10-20T20:09:51.660Z,11.52
2022-10-20T20:12:18.227Z,11.44
2022-10-20T20:14:44.642Z,11.47
2022-10-20T20:17:11.222Z,11.49
2022-10-20T20:19:37.595Z,11.35
2022-10-20T20:22:03.910Z,11.44
2022-10-20T20:24:30.169Z,11.48
2022-10-20T20:26:58.243Z,11.41
2022-10-20T20:29:24.415Z,11.44
2022-10-20T20:31:50.741Z,11.41
2022-10-20T20:34:17.017Z,11.43
2022-10-20T20:36:43.283Z,11.40
2022-10-20T20:39:09.542Z,11.46
2022-10-20T20:41:37.385Z,11.44
2022-10-20T20:44:07.930Z,11.41
2022-10-20T20:46:36.011Z,11.50
2022-10-20T20:49:02.319Z,11.48
2022-10-20T20:51:33.843Z,11.53
2022-10-20T20:54:00.484Z,11.46
2022-10-20T20:56:27.884Z,11.49
2022-10-20T20:58:55.271Z,11.48
2022-10-20T21:01:21.947Z,11.50
2022-10-20T21:03:48.327Z,11.48
2022-10-20T21:06:14.595Z,11.45
2022-10-20T21:08:40.927Z,11.48
2022-10-20T21:11:07.200Z,11.44
2022-10-20T21:13:33.458Z,11.53
2022-10-20T21:15:59.705Z,11.55
2022-10-20T21:18:25.954Z,11.43
2022-10-20T21:20:52.250Z,11.47
2022-10-20T21:23:18.786Z,11.47
2022-10-20T21:25:45.026Z,11.50
2022-10-20T21:28:11.449Z,11.51
2022-10-20T21:30:37.705Z,11.45
2022-10-20T21:33:03.968Z,11.54
2022-10-20T21:35:30.235Z,11.56
2022-10-20T21:37:56.487Z,11.57
2022-10-20T21:40:22.756Z,11.60
2022-10-20T21:42:49.011Z,11.66
2022-10-20T21:45:18.255Z,11.67
2022-10-20T21:47:45.410Z,11.74
2022-10-20T21:50:11.665Z,11.80
2022-10-20T21:52:39.168Z,11.78
2022-10-20T21:55:05.631Z,11.76
2022-10-20T21:57:31.882Z,11.82
2022-10-20T21:59:58.126Z,11.82
2022-10-20T22:02:24.382Z,11.86
2022-10-20T22:04:50.626Z,11.86
2022-10-20T22:07:16.882Z,11.87
2022-10-20T22:09:43.150Z,11.93
2022-10-20T22:12:09.398Z,11.89
2022-10-20T22:14:35.687Z,11.86
2022-10-20T22:17:02.014Z,11.88
2022-10-20T22:19:28.267Z,11.86
2022-10-20T22:21:54.729Z,11.85
2022-10-20T22:24:21.063Z,11.91
2022-10-20T22:26:47.325Z,11.84
2022-10-20T22:29:13.595Z,11.90
2022-10-20T22:31:39.858Z,11.89
2022-10-20T22:34:06.311Z,11.83
2022-10-20T22:36:32.558Z,11.96
2022-10-20T22:39:00.378Z,11.86
2022-10-20T22:41:26.670Z,11.93
2022-10-20T22:43:52.927Z,11.89
2022-10-20T22:46:19.191Z,11.92
2022-10-20T22:48:46.258Z,11.88
2022-10-20T22:51:12.526Z,11.87
2022-10-20T22:53:38.785Z,11.75
2022-10-20T22:56:05.450Z,11.83
2022-10-20T22:58:31.690Z,11.78
2022-10-20T23:00:58.022Z,11.86
2022-10-20T23:03:24.299Z,11.84
2022-10-20T23:05:50.581Z,11.81
2022-10-20T23:08:16.834Z,11.84
2022-10-20T23:10:43.083Z,11.89
2022-10-20T23:13:09.345Z,11.90
2022-10-20T23:15:35.608Z,11.89
2022-10-20T23:18:01.908Z,11.85
2022-10-20T23:20:28.160Z,11.89
2022-10-20T23:22:54.457Z,11.86
2022-10-20T23:25:20.716Z,11.88
2022-10-20T23:27:46.972Z,11.89
2022-10-20T23:30:13.231Z,11.88
2022-10-20T23:32:39.472Z,11.80
2022-10-20T23:35:05.733Z,11.94
2022-10-20T23:37:32.057Z,11.87
2022-10-20T23:39:58.384Z,11.82
2022-10-20T23:42:24.648Z,11.85
2022-10-20T23:44:50.906Z,11.88
2022-10-20T23:47:17.157Z,11.88
2022-10-20T23:49:43.407Z,11.83
2022-10-20T23:52:09.665Z,11.85
2022-10-20T23:54:35.914Z,11.85
2022-10-20T23:57:02.566Z,11.81
2022-10-20T23:59:28.818Z,11.85
